Time;durP1;ratioP1;P1;durP2;ratioP2;P2;SDS_P1;SDS_P2;PMS_P1;PMS_P2;Temp;Humidity;BMP_temperature;BMP_pressure;BME280_temperature;BME280_humidity;BME280_pressure;Samples;Min_cycle;Max_cycle;Signal;HPM_P1;HPM_P2
2021/12/05 00:19:18;;;;;;;0.20;0.20;;;;;;;19.10;41.43;99496.13;5124721;27;20488;-38
2021/12/05 00:21:58;;;;;;;0.20;0.20;;;;;;;19.10;41.43;99496.94;5113703;27;20062;-36
2021/12/05 00:24:26;;;;;;;0.20;0.20;;;;;;;19.09;41.45;99500.84;5136846;27;20043;-36
2021/12/05 00:27:03;;;;;;;0.20;0.20;;;;;;;19.10;41.47;99498.91;5105423;27;20079;-35
2021/12/05 00:29:45;;;;;;;0.20;0.20;;;;;;;19.10;41.47;99498.91;5122608;27;20130;-35
2021/12/05 00:32:24;;;;;;;0.20;0.20;;;;;;;19.11;41.48;99497.75;5140057;27;20126;-35
2021/12/05 00:35:18;;;;;;;0.20;0.20;;;;;;;19.10;41.61;99505.22;5135964;27;20043;-35
2021/12/05 00:38:17;;;;;;;0.20;0.20;;;;;;;19.10;41.36;99505.22;5122448;27;20074;-36
2021/12/05 00:49:10;;;;;;;0.20;0.20;;;;;;;19.09;41.64;99505.56;5120785;27;20551;-37
2021/12/05 00:57:28;;;;;;;0.20;0.20;;;;;;;19.08;41.40;99501.94;5125147;27;20087;-37
2021/12/05 01:00:03;;;;;;;0.20;0.20;;;;;;;19.08;41.35;99501.94;5110710;27;20047;-36
2021/12/05 01:02:35;;;;;;;0.20;0.20;;;;;;;19.08;41.39;99504.72;5140284;27;20137;-36
2021/12/05 01:05:34;;;;;;;0.20;0.20;;;;;;;19.09;41.55;99500.03;5132423;27;20098;-35
2021/12/05 01:10:49;;;;;;;0.20;0.20;;;;;;;19.09;41.40;99495.31;5166609;27;20202;-35
2021/12/05 01:16:05;;;;;;;0.20;0.20;;;;;;;19.09;41.55;99498.09;5149980;27;20094;-36
2021/12/05 01:18:30;;;;;;;0.20;0.20;;;;;;;19.10;41.53;99502.47;5144105;27;20050;-36
2021/12/05 01:21:03;;;;;;;0.20;0.20;;;;;;;19.08;41.49;99507.47;5146435;27;20039;-35
2021/12/05 01:23:41;;;;;;;0.20;0.20;;;;;;;19.09;41.64;99514.66;5145258;27;20045;-35
2021/12/05 01:26:13;;;;;;;0.20;0.20;;;;;;;19.10;41.27;99515.47;5159777;27;20038;-35
2021/12/05 01:31:39;;;;;;;0.20;0.20;;;;;;;19.09;41.34;99522.94;5131072;27;20040;-36
2021/12/05 01:39:37;;;;;;;0.20;0.20;;;;;;;19.09;41.55;99531.19;5147049;27;20070;-35
2021/12/05 01:45:49;;;;;;;0.20;0.20;;;;;;;19.08;41.43;99529.53;5145451;27;20097;-37
2021/12/05 01:53:19;;;;;;;0.20;0.20;;;;;;;19.09;41.46;99538.66;5139305;27;20046;-37
2021/12/05 02:01:49;;;;;;;0.20;0.20;;;;;;;19.09;41.40;99545.00;5122359;27;20038;-35
2021/12/05 02:10:44;;;;;;;0.20;0.20;;;;;;;19.09;41.62;99541.44;5119816;27;20046;-35
2021/12/05 02:15:51;;;;;;;0.20;0.20;;;;;;;19.08;41.55;99535.06;5131858;27;20041;-35
2021/12/05 02:29:41;;;;;;;0.20;0.20;;;;;;;19.08;41.44;99532.31;5097027;27;20039;-36
2021/12/05 02:34:53;;;;;;;0.20;0.20;;;;;;;19.08;41.47;99532.31;5099976;27;20051;-38
2021/12/05 02:40:24;;;;;;;0.20;0.20;;;;;;;19.08;41.29;99528.72;5117626;27;20063;-38
2021/12/05 02:43:02;;;;;;;0.20;0.20;;;;;;;19.08;41.45;99534.25;5127585;27;20040;-38
2021/12/05 02:45:28;;;;;;;0.20;0.20;;;;;;;19.08;41.42;99524.03;5123171;27;20553;-36
2021/12/05 02:47:54;;;;;;;0.20;0.20;;;;;;;19.08;41.46;99523.22;5129004;27;20061;-35
2021/12/05 02:50:23;;;;;;;0.20;0.20;;;;;;;19.09;41.57;99528.44;5123029;27;20043;-35
2021/12/05 02:52:50;;;;;;;0.20;0.20;;;;;;;19.09;41.51;99522.94;5108279;27;20046;-36
2021/12/05 02:55:25;;;;;;;0.20;0.20;;;;;;;19.10;41.45;99523.72;5106741;27;20048;-35
2021/12/05 02:58:02;;;;;;;0.20;0.20;;;;;;;19.09;41.47;99520.16;5110211;27;20059;-35
2021/12/05 03:00:42;;;;;;;0.20;0.20;;;;;;;19.09;41.69;99509.13;5127165;27;20039;-35
2021/12/05 03:03:18;;;;;;;0.20;0.20;;;;;;;19.08;41.47;99521.28;5127680;27;20095;-35
2021/12/05 03:05:48;;;;;;;0.20;0.20;;;;;;;19.08;41.42;99521.28;5108301;28;20045;-35
2021/12/05 03:08:14;;;;;;;0.20;0.20;;;;;;;19.08;41.48;99521.28;5102035;28;20044;-35
2021/12/05 03:10:40;;;;;;;0.20;0.20;;;;;;;19.09;41.67;99524.88;5117636;28;20043;-35
2021/12/05 03:13:06;;;;;;;0.20;0.20;;;;;;;19.08;41.26;99515.75;5098804;28;20209;-36
2021/12/05 03:15:31;;;;;;;0.20;0.20;;;;;;;19.08;41.67;99520.47;5083289;28;20039;-35
2021/12/05 03:17:57;;;;;;;0.20;0.20;;;;;;;19.09;41.61;99522.09;5117062;28;20096;-35
2021/12/05 03:20:23;;;;;;;0.20;0.20;;;;;;;19.09;41.70;99511.88;5114117;28;20051;-35
2021/12/05 03:22:51;;;;;;;0.20;0.20;;;;;;;19.09;41.35;99514.66;5117741;28;20059;-35
2021/12/05 03:25:17;;;;;;;0.20;0.20;;;;;;;19.08;41.54;99513.00;5112191;28;20062;-35
2021/12/05 03:27:43;;;;;;;0.20;0.20;;;;;;;19.09;41.62;99511.06;5115007;28;20367;-35
2021/12/05 03:30:11;;;;;;;0.20;0.20;;;;;;;19.08;41.67;99504.72;5092222;28;20047;-35
2021/12/05 03:32:38;;;;;;;0.20;0.20;;;;;;;19.08;41.37;99504.72;5096812;28;20087;-35
2021/12/05 03:35:06;;;;;;;0.20;0.20;;;;;;;19.07;41.41;99502.28;5114597;28;20458;-36
2021/12/05 03:37:32;;;;;;;0.20;0.20;;;;;;;19.08;41.61;99499.19;5111006;28;20085;-35
2021/12/05 03:39:58;;;;;;;0.20;0.20;;;;;;;19.08;41.62;99499.19;5108093;28;20052;-35
2021/12/05 03:42:23;;;;;;;0.20;0.20;;;;;;;19.08;41.53;99493.69;5112927;28;20135;-36
2021/12/05 03:44:49;;;;;;;0.20;0.20;;;;;;;19.08;41.36;99499.19;5096776;28;20051;-35
2021/12/05 03:47:15;;;;;;;0.20;0.20;;;;;;;19.08;41.54;99501.13;5108826;28;20056;-35
2021/12/05 03:49:41;;;;;;;0.20;0.20;;;;;;;19.07;41.53;99497.56;5094524;28;20396;-35
2021/12/05 03:52:10;;;;;;;0.20;0.20;;;;;;;19.07;41.38;99497.56;5078219;28;20047;-35
2021/12/05 03:54:37;;;;;;;0.20;0.20;;;;;;;19.07;41.35;99500.34;5093699;28;20043;-36
2021/12/05 03:57:03;;;;;;;0.20;0.20;;;;;;;19.08;41.58;99496.44;5111483;28;20051;-35
2021/12/05 03:59:30;;;;;;;0.20;0.20;;;;;;;19.08;41.36;99496.44;5088247;28;20044;-36
2021/12/05 04:01:57;;;;;;;0.20;0.20;;;;;;;19.08;41.34;99496.44;5093251;28;20044;-35
2021/12/05 04:04:23;;;;;;;0.20;0.20;;;;;;;19.09;41.66;99498.09;5096341;28;20043;-36
2021/12/05 04:06:49;;;;;;;0.20;0.20;;;;;;;19.08;41.56;99496.44;5104789;28;20071;-36
2021/12/05 04:09:16;;;;;;;0.20;0.20;;;;;;;19.09;41.37;99498.09;5105106;28;20227;-35
2021/12/05 04:11:55;;;;;;;0.20;0.20;;;;;;;19.08;41.57;99507.47;5112368;28;20070;-35
2021/12/05 04:14:20;;;;;;;0.20;0.20;;;;;;;19.08;41.58;99499.19;5094722;28;20036;-36
2021/12/05 04:16:46;;;;;;;0.20;0.20;;;;;;;19.09;41.65;99498.09;5112990;28;20061;-35
2021/12/05 04:19:12;;;;;;;0.20;0.20;;;;;;;19.08;41.52;99490.09;5090011;28;20047;-35
2021/12/05 04:21:38;;;;;;;0.20;0.20;;;;;;;19.08;41.64;99492.88;5097580;28;20055;-35
2021/12/05 04:24:05;;;;;;;0.20;0.20;;;;;;;19.09;41.40;99494.53;5108035;28;20137;-35
2021/12/05 04:26:31;;;;;;;0.20;0.20;;;;;;;19.08;41.53;99490.91;5116084;28;20062;-36
2021/12/05 04:28:57;;;;;;;0.20;0.20;;;;;;;19.08;41.65;99495.63;5108473;28;20466;-35
2021/12/05 04:31:23;;;;;;;0.20;0.20;;;;;;;19.08;41.44;99498.38;5096824;28;20048;-36
2021/12/05 04:33:50;;;;;;;0.22;0.22;;;;;;;19.08;41.75;99498.38;5106618;28;20062;-35
2021/12/05 04:36:16;;;;;;;0.20;0.20;;;;;;;19.08;41.66;99498.38;5109411;28;20424;-36
2021/12/05 04:38:42;;;;;;;0.20;0.20;;;;;;;19.08;41.40;99504.72;5107846;28;20050;-35
2021/12/05 04:41:07;;;;;;;0.20;0.20;;;;;;;19.08;41.42;99503.91;5114739;28;20390;-36
2021/12/05 04:43:38;;;;;;;0.20;0.20;;;;;;;19.08;41.49;99501.94;5110877;28;20062;-36
2021/12/05 04:46:07;;;;;;;0.20;0.20;;;;;;;19.08;41.52;99499.19;5108282;28;20036;-36
2021/12/05 04:48:33;;;;;;;0.20;0.20;;;;;;;19.07;41.63;99500.34;5108744;28;20047;-35
2021/12/05 04:51:00;;;;;;;0.20;0.20;;;;;;;19.07;41.58;99499.53;5095223;28;20043;-35
2021/12/05 04:53:27;;;;;;;0.20;0.20;;;;;;;19.07;41.74;99496.75;5107472;28;20032;-35
2021/12/05 04:55:53;;;;;;;0.20;0.20;;;;;;;19.08;41.73;99498.38;5112514;28;20126;-35
2021/12/05 04:58:19;;;;;;;0.20;0.20;;;;;;;19.07;41.42;99499.53;5115526;28;20050;-36
2021/12/05 05:00:47;;;;;;;0.20;0.20;;;;;;;19.07;41.53;99499.53;5111505;28;20040;-36
2021/12/05 05:03:14;;;;;;;0.20;0.20;;;;;;;19.08;41.41;99498.38;5111932;28;20043;-39
2021/12/05 05:05:46;;;;;;;0.20;0.20;;;;;;;19.08;41.50;99492.88;5091531;28;20047;-35
2021/12/05 05:08:12;;;;;;;0.20;0.20;;;;;;;19.08;41.66;99488.16;5110890;28;20039;-35
2021/12/05 05:10:38;;;;;;;0.20;0.20;;;;;;;19.07;41.43;99485.72;5107973;28;20069;-35
2021/12/05 05:13:04;;;;;;;0.20;0.20;;;;;;;19.08;41.35;99487.34;5109233;28;20042;-35
2021/12/05 05:15:31;;;;;;;0.20;0.20;;;;;;;19.09;41.60;99486.25;5075148;28;20134;-37
2021/12/05 05:17:58;;;;;;;0.20;0.20;;;;;;;19.08;41.67;99481.81;5077815;28;20504;-36
2021/12/05 05:20:39;;;;;;;0.20;0.20;;;;;;;19.07;41.67;99489.28;5113453;28;20531;-35
2021/12/05 05:26:27;;;;;;;0.20;0.20;;;;;;;19.06;41.58;99498.72;5078780;28;20053;-35
2021/12/05 05:39:54;;;;;;;0.20;0.20;;;;;;;19.07;41.37;99519.66;5150575;27;20034;-35
2021/12/05 05:45:22;;;;;;;0.20;0.20;;;;;;;19.07;41.77;99521.59;5148705;27;20052;-35
2021/12/05 05:50:28;;;;;;;0.20;0.20;;;;;;;19.07;41.67;99530.69;5162060;27;20198;-35
2021/12/05 05:52:54;;;;;;;0.20;0.20;;;;;;;19.06;41.55;99526.31;5132689;27;20412;-35
2021/12/05 05:55:20;;;;;;;0.20;0.20;;;;;;;19.06;41.49;99534.56;5130330;27;20047;-36
2021/12/05 06:00:36;;;;;;;0.20;0.20;;;;;;;19.06;41.74;99537.34;5174568;27;20914;-35
2021/12/05 06:03:34;;;;;;;0.20;0.20;;;;;;;19.05;41.72;99536.53;5146667;27;20046;-36
2021/12/05 06:06:00;;;;;;;0.20;0.20;;;;;;;19.06;41.54;99545.63;5131421;27;20047;-35
2021/12/05 06:08:28;;;;;;;0.20;0.20;;;;;;;19.07;41.81;99541.72;5148108;27;20039;-36
2021/12/05 06:10:57;;;;;;;0.20;0.20;;;;;;;19.08;41.50;99542.53;5136710;27;20133;-36
2021/12/05 06:13:23;;;;;;;0.15;0.15;;;;;;;19.05;41.63;99544.81;5129611;27;20039;-36
2021/12/05 06:15:50;;;;;;;0.20;0.20;;;;;;;19.07;41.65;99536.19;5146407;27;20133;-35
2021/12/05 06:18:16;;;;;;;0.20;0.20;;;;;;;19.07;41.51;99544.47;5122383;27;20051;-36
2021/12/05 06:20:43;;;;;;;0.20;0.20;;;;;;;19.07;41.77;99543.66;5127160;27;20039;-36
2021/12/05 06:23:10;;;;;;;0.20;0.20;;;;;;;19.06;41.43;99540.09;5126455;27;20130;-35
2021/12/05 06:25:38;;;;;;;0.20;0.20;;;;;;;19.07;41.70;99543.66;5107829;27;20054;-35
2021/12/05 06:28:10;;;;;;;0.20;0.20;;;;;;;19.07;41.58;99550.00;5111622;27;20043;-35
2021/12/05 06:42:02;;;;;;;0.20;0.20;;;;;;;19.05;41.66;99563.31;5130110;27;20054;-35
2021/12/05 06:47:13;;;;;;;0.20;0.20;;;;;;;19.07;41.75;99562.97;5147659;27;20050;-36
2021/12/05 06:49:40;;;;;;;0.20;0.20;;;;;;;19.07;41.63;99569.31;5161113;27;20042;-35
2021/12/05 06:52:07;;;;;;;0.20;0.20;;;;;;;19.06;41.73;99573.22;5161481;27;21079;-35
2021/12/05 06:54:35;;;;;;;0.20;0.20;;;;;;;19.07;41.77;99568.50;5157786;27;20428;-35
2021/12/05 06:57:00;;;;;;;0.20;0.20;;;;;;;19.05;41.63;99577.91;5163670;27;20039;-37
2021/12/05 06:59:26;;;;;;;0.20;0.20;;;;;;;19.05;41.80;99577.09;5144733;27;20034;-34
2021/12/05 07:01:52;;;;;;;0.20;0.20;;;;;;;19.07;41.72;99571.25;5163877;27;20050;-35
2021/12/05 07:04:43;;;;;;;0.20;0.20;;;;;;;19.07;41.48;99582.28;5160146;27;20038;-35
2021/12/05 07:07:04;;;;;;;0.20;0.20;;;;;;;19.08;41.71;99583.91;5144632;27;20050;-35
2021/12/05 07:09:30;;;;;;;0.20;0.20;;;;;;;19.06;41.84;99584.25;5160606;27;20061;-35
2021/12/05 07:14:49;;;;;;;0.20;0.20;;;;;;;19.07;41.99;99579.53;5143925;27;20156;-36
2021/12/05 07:20:58;;;;;;;0.20;0.20;;;;;;;19.07;41.73;99587.81;5158997;27;20204;-39
2021/12/05 07:23:17;;;;;;;0.20;0.20;;;;;;;19.07;41.70;99582.28;5095737;27;20055;-37
2021/12/05 07:26:04;;;;;;;0.20;0.20;;;;;;;19.05;41.79;99588.94;5116221;27;20115;-34
2021/12/05 07:40:21;;;;;;;0.20;0.20;;;;;;;19.06;41.83;99587.00;5122908;27;20043;-35
2021/12/05 07:42:23;;;;;;;0.20;0.20;;;;;;;19.06;41.59;99606.31;5126837;27;20067;-35
2021/12/05 07:44:51;;;;;;;0.20;0.20;;;;;;;19.06;41.77;99603.56;5136960;27;20051;-34
2021/12/05 07:47:19;;;;;;;0.20;0.20;;;;;;;19.05;41.65;99607.44;5136208;27;20038;-36
2021/12/05 07:49:47;;;;;;;0.20;0.20;;;;;;;19.05;41.49;99607.44;5142071;27;20392;-37
2021/12/05 07:52:18;;;;;;;0.30;0.30;;;;;;;19.06;41.66;99603.56;5141968;27;20051;-36
2021/12/05 07:54:48;;;;;;;0.20;0.20;;;;;;;19.05;41.50;99611.03;5113044;27;20039;-36
2021/12/05 07:57:21;;;;;;;0.20;0.20;;;;;;;19.05;41.79;99613.78;5135101;27;20050;-35
2021/12/05 08:00:27;;;;;;;0.20;0.20;;;;;;;19.04;41.57;99611.31;5139411;27;20047;-36
2021/12/05 08:16:28;;;;;;;0.20;0.20;;;;;;;19.05;41.67;99629.53;5128934;27;20048;-35
2021/12/05 08:18:54;;;;;;;0.20;0.20;;;;;;;19.04;41.60;99637.00;5108596;27;20039;-35
2021/12/05 08:21:19;;;;;;;0.20;0.20;;;;;;;19.05;41.57;99640.56;5089737;28;20090;-35
2021/12/05 08:23:46;;;;;;;0.20;0.20;;;;;;;19.05;41.57;99646.91;5124774;27;20043;-35
2021/12/05 08:26:18;;;;;;;0.20;0.20;;;;;;;19.05;41.97;99651.59;5128877;27;20041;-34
2021/12/05 08:31:55;;;;;;;0.20;0.20;;;;;;;19.07;41.58;99656.81;5165304;27;20206;-35
2021/12/05 08:34:39;;;;;;;0.20;0.20;;;;;;;19.05;41.51;99652.41;5130254;27;20050;-34
2021/12/05 08:37:42;;;;;;;0.20;0.20;;;;;;;19.05;41.50;99662.63;5136079;27;20095;-34
2021/12/05 08:40:18;;;;;;;0.30;0.30;;;;;;;19.05;41.63;99659.88;5134269;27;20054;-35
2021/12/05 08:43:01;;;;;;;0.20;0.20;;;;;;;19.06;41.83;99664.25;5121025;27;20051;-34
2021/12/05 09:29:51;;;;;;;0.20;0.20;;;;;;;19.05;41.74;99707.59;5113572;27;20393;-35
2021/12/05 10:02:45;;;;;;;0.20;0.20;;;;;;;19.03;41.65;99742.94;5115136;28;20398;-36
2021/12/05 10:08:43;;;;;;;0.20;0.20;;;;;;;19.03;41.86;99742.13;5114462;28;20053;-36
2021/12/05 10:11:03;;;;;;;0.20;0.20;;;;;;;19.03;41.95;99751.22;5114883;28;20084;-35
2021/12/05 10:13:51;;;;;;;0.20;0.20;;;;;;;19.04;41.54;99755.66;5130657;27;20046;-34
2021/12/05 10:16:26;;;;;;;0.20;0.20;;;;;;;19.03;41.95;99753.16;5114703;27;20047;-34
2021/12/05 10:19:23;;;;;;;0.20;0.20;;;;;;;19.03;41.79;99755.94;5111444;27;20054;-34
2021/12/05 10:36:17;;;;;;;0.20;0.20;;;;;;;19.03;41.79;99758.69;5093018;28;20043;-35
2021/12/05 10:38:30;;;;;;;0.20;0.20;;;;;;;19.02;41.63;99757.88;5081289;28;20047;-34
2021/12/05 10:41:17;;;;;;;0.20;0.20;;;;;;;19.03;41.91;99769.72;5111417;28;20036;-34
2021/12/05 10:43:46;;;;;;;0.20;0.20;;;;;;;19.02;41.97;99763.41;5107798;28;20469;-36
2021/12/05 10:46:15;;;;;;;0.30;0.30;;;;;;;19.03;41.75;99766.97;5076293;28;20050;-35
2021/12/05 10:48:46;;;;;;;0.20;0.20;;;;;;;19.03;41.85;99769.72;5093793;28;20058;-35
2021/12/05 10:51:15;;;;;;;0.20;0.20;;;;;;;19.02;41.74;99770.84;5094109;28;20039;-35
2021/12/05 10:53:45;;;;;;;0.20;0.20;;;;;;;19.02;41.66;99768.91;5108696;28;20717;-35
2021/12/05 10:56:15;;;;;;;0.20;0.20;;;;;;;19.02;41.87;99770.84;5094179;28;20043;-35
2021/12/05 10:58:54;;;;;;;0.20;0.20;;;;;;;19.02;42.00;99768.91;5109510;28;20047;-35
2021/12/05 11:01:42;;;;;;;0.20;0.20;;;;;;;19.02;41.67;99776.38;5093218;28;20051;-35
2021/12/05 11:04:17;;;;;;;0.20;0.20;;;;;;;19.02;41.93;99774.44;5093221;28;20070;-35
2021/12/05 11:09:28;;;;;;;0.20;0.20;;;;;;;19.03;41.66;99773.31;5157105;27;20265;-34
2021/12/05 11:14:49;;;;;;;0.20;0.20;;;;;;;19.03;41.91;99770.53;5173454;27;20209;-35
2021/12/05 11:17:19;;;;;;;0.20;0.20;;;;;;;19.02;41.70;99779.94;5145519;27;20087;-34
2021/12/05 11:19:48;;;;;;;0.20;0.20;;;;;;;19.00;41.97;99776.69;5159988;27;20042;-34
2021/12/05 11:22:23;;;;;;;0.20;0.20;;;;;;;19.02;41.84;99773.63;5143882;27;20118;-36
2021/12/05 11:24:52;;;;;;;0.20;0.20;;;;;;;19.02;41.66;99776.38;5140760;27;20082;-35
2021/12/05 11:27:29;;;;;;;0.20;0.20;;;;;;;19.02;41.69;99774.44;5145086;27;20079;-36
2021/12/05 11:30:00;;;;;;;0.20;0.20;;;;;;;19.02;41.68;99781.91;5156421;27;20125;-38
2021/12/05 11:38:05;;;;;;;0.20;0.20;;;;;;;19.01;41.76;99777.50;5166799;27;20529;-36
2021/12/05 11:40:59;;;;;;;0.20;0.20;;;;;;;19.02;41.89;99781.91;5131812;27;20599;-35
2021/12/05 11:43:29;;;;;;;0.20;0.20;;;;;;;19.02;41.84;99774.44;5133005;27;20054;-36
2021/12/05 11:46:00;;;;;;;0.20;0.20;;;;;;;19.01;41.97;99769.22;5163424;27;20042;-35
2021/12/05 11:48:29;;;;;;;0.20;0.20;;;;;;;19.02;41.86;99776.38;5145416;27;20038;-36
2021/12/05 11:50:56;;;;;;;0.20;0.20;;;;;;;19.01;41.78;99783.84;5164330;27;20043;-35
2021/12/05 11:53:43;;;;;;;0.20;0.20;;;;;;;19.02;41.94;99787.41;5147065;27;20038;-35
2021/12/05 11:56:10;;;;;;;0.20;0.20;;;;;;;19.02;41.74;99784.66;5150439;27;20050;-36
2021/12/05 11:58:36;;;;;;;0.20;0.20;;;;;;;19.02;41.91;99787.41;5165499;27;20030;-38
2021/12/05 12:01:08;;;;;;;0.20;0.20;;;;;;;19.02;41.94;99790.16;5146417;27;20095;-34
2021/12/05 12:03:35;;;;;;;0.20;0.20;;;;;;;19.02;41.91;99790.16;5144267;27;20117;-36
2021/12/05 12:06:01;;;;;;;0.20;0.20;;;;;;;19.01;42.08;99785.78;5164084;27;20046;-35
2021/12/05 12:08:27;;;;;;;0.20;0.20;;;;;;;19.02;41.77;99790.16;5165193;27;20060;-35
2021/12/05 12:10:57;;;;;;;0.20;0.20;;;;;;;19.01;41.95;99794.06;5164631;27;20039;-35
2021/12/05 12:13:29;;;;;;;0.20;0.20;;;;;;;19.01;42.05;99800.41;5130451;27;20423;-35
2021/12/05 12:15:59;;;;;;;0.20;0.20;;;;;;;19.01;42.02;99788.53;5164606;27;20039;-34
2021/12/05 12:18:30;;;;;;;0.20;0.20;;;;;;;19.01;41.92;99789.34;5150305;27;20549;-35
2021/12/05 12:20:59;;;;;;;0.20;0.20;;;;;;;19.02;41.96;99795.69;5135649;27;20050;-34
2021/12/05 12:23:25;;;;;;;0.20;0.20;;;;;;;19.01;41.87;99797.63;5141714;27;20043;-35
2021/12/05 12:25:56;;;;;;;0.20;0.20;;;;;;;19.01;42.04;99792.13;5138656;27;20489;-35
2021/12/05 12:28:22;;;;;;;0.20;0.20;;;;;;;19.02;42.02;99792.94;5142062;27;20043;-35
2021/12/05 12:30:52;;;;;;;0.20;0.20;;;;;;;19.01;42.09;99794.88;5139456;27;20134;-35
2021/12/05 12:33:22;;;;;;;0.20;0.20;;;;;;;19.02;41.93;99790.16;5141043;27;20099;-34
2021/12/05 12:35:49;;;;;;;0.20;0.20;;;;;;;19.03;42.04;99789.03;5121070;27;20058;-35
2021/12/05 12:38:18;;;;;;;0.20;0.20;;;;;;;19.01;41.87;99792.13;5141968;27;20061;-35
2021/12/05 12:40:49;;;;;;;0.20;0.20;;;;;;;19.00;41.97;99796.00;5138252;27;20484;-35
2021/12/05 12:43:54;;;;;;;0.20;0.20;;;;;;;19.01;42.01;99796.81;5140888;27;20039;-35
2021/12/05 12:52:08;;;;;;;0.20;0.20;;;;;;;19.01;41.95;99816.13;5170267;27;20210;-34
2021/12/05 12:54:40;;;;;;;0.20;0.20;;;;;;;19.01;42.09;99816.13;5138436;27;20507;-34
2021/12/05 12:57:23;;;;;;;0.20;0.20;;;;;;;19.01;42.08;99810.63;5120654;27;20069;-35
2021/12/05 12:59:58;;;;;;;0.20;0.20;;;;;;;19.00;42.11;99815.31;5131217;27;20061;-36
2021/12/05 13:02:37;;;;;;;0.20;0.20;;;;;;;19.00;41.93;99823.59;5156863;27;20047;-35
2021/12/05 13:05:39;;;;;;;0.20;0.20;;;;;;;19.01;41.95;99818.91;5133607;27;20141;-36
2021/12/05 13:11:09;;;;;;;0.20;0.20;;;;;;;19.01;41.87;99832.69;5134825;27;20439;-37
2021/12/05 13:13:39;;;;;;;0.20;0.20;;;;;;;19.01;42.04;99836.25;5111442;27;20055;-37
2021/12/05 13:16:22;;;;;;;0.20;0.20;;;;;;;19.01;42.16;99830.75;5126601;27;20107;-35
2021/12/05 13:18:56;;;;;;;0.20;0.20;;;;;;;19.01;41.97;99836.25;5113271;27;20044;-35
2021/12/05 13:21:36;;;;;;;0.20;0.20;;;;;;;19.01;42.00;99838.22;5151060;27;20052;-36
2021/12/05 13:24:27;;;;;;;0.20;0.20;;;;;;;19.01;41.96;99840.97;5128532;27;20046;-37
2021/12/05 13:27:01;;;;;;;0.20;0.20;;;;;;;19.00;41.92;99840.16;5137751;27;20042;-37
2021/12/05 13:29:30;;;;;;;0.20;0.20;;;;;;;19.01;42.01;99846.50;5127005;27;20051;-35
2021/12/05 13:32:13;;;;;;;0.20;0.20;;;;;;;19.00;42.22;99850.38;5132806;27;20156;-36
2021/12/05 13:40:28;;;;;;;0.20;0.20;;;;;;;19.01;42.05;99854.75;5166799;27;20636;-35
2021/12/05 13:43:01;;;;;;;0.20;0.20;;;;;;;19.01;41.99;99863.03;5130755;27;20385;-35
2021/12/05 13:45:31;;;;;;;0.20;0.20;;;;;;;19.00;41.98;99861.41;5122695;27;20107;-36
2021/12/05 13:50:44;;;;;;;0.20;0.20;;;;;;;19.00;42.11;99867.75;5168757;27;20217;-35
2021/12/05 13:58:40;;;;;;;0.20;0.20;;;;;;;18.99;42.20;99882.66;5157967;27;20624;-35
2021/12/05 14:01:29;;;;;;;0.20;0.20;;;;;;;19.00;42.12;99875.22;5157970;27;20047;-35
2021/12/05 14:04:19;;;;;;;0.20;0.20;;;;;;;19.00;41.93;99884.31;5124146;27;20057;-36
2021/12/05 14:06:54;;;;;;;0.20;0.20;;;;;;;19.00;41.81;99889.81;5144599;27;20050;-35
2021/12/05 14:09:30;;;;;;;0.20;0.20;;;;;;;19.00;42.03;99892.59;5154162;27;20102;-35
2021/12/05 14:12:02;;;;;;;0.20;0.20;;;;;;;19.00;41.94;99898.09;5160065;27;20035;-40
2021/12/05 14:14:39;;;;;;;0.20;0.20;;;;;;;19.01;42.16;99893.41;5134275;27;20047;-36
2021/12/05 14:17:09;;;;;;;0.20;0.20;;;;;;;19.01;42.05;99890.63;5153472;27;20392;-36
2021/12/05 14:19:37;;;;;;;0.20;0.20;;;;;;;19.00;42.06;99903.63;5118267;27;20045;-35
2021/12/05 14:22:05;;;;;;;0.20;0.20;;;;;;;19.02;42.21;99906.06;5117379;27;20085;-35
2021/12/05 14:24:34;;;;;;;0.20;0.20;;;;;;;19.01;42.01;99909.94;5117738;27;20039;-34
2021/12/05 14:27:04;;;;;;;0.20;0.20;;;;;;;19.01;42.16;99910.78;5123557;27;20541;-37
2021/12/05 14:29:31;;;;;;;0.20;0.20;;;;;;;19.01;42.01;99916.28;5136712;27;20047;-34
2021/12/05 14:31:59;;;;;;;0.20;0.20;;;;;;;19.01;41.99;99923.75;5121254;27;20043;-34
2021/12/05 14:34:27;;;;;;;0.20;0.20;;;;;;;19.01;42.04;99930.09;5100441;27;20051;-34
2021/12/05 14:37:04;;;;;;;0.20;0.20;;;;;;;19.00;42.02;99938.69;5137732;27;20039;-35
2021/12/05 14:39:34;;;;;;;0.20;0.20;;;;;;;18.99;42.08;99940.59;5118439;27;20043;-34
2021/12/05 14:42:05;;;;;;;0.20;0.20;;;;;;;19.01;42.02;99943.06;5104149;27;20050;-35
2021/12/05 14:44:31;;;;;;;0.20;0.20;;;;;;;18.99;41.89;99946.09;5115915;27;20054;-34
2021/12/05 14:47:01;;;;;;;0.20;0.20;;;;;;;19.01;42.00;99954.91;5137387;27;20049;-34
2021/12/05 14:49:30;;;;;;;0.20;0.20;;;;;;;19.00;41.89;99956.03;5116346;27;20325;-35
2021/12/05 14:51:57;;;;;;;0.20;0.20;;;;;;;19.01;42.09;99970.66;5137539;27;20053;-34
2021/12/05 14:54:28;;;;;;;0.20;0.20;;;;;;;19.00;42.24;99971.78;5137545;27;20049;-34
2021/12/05 14:56:55;;;;;;;0.20;0.20;;;;;;;19.00;42.03;99967.09;5118311;27;20135;-35
2021/12/05 14:59:21;;;;;;;0.20;0.20;;;;;;;19.01;42.01;99971.47;5137578;27;20130;-34
2021/12/05 15:01:51;;;;;;;0.20;0.20;;;;;;;19.01;42.00;99976.19;5115205;27;20142;-34
2021/12/05 15:04:20;;;;;;;0.20;0.20;;;;;;;19.00;42.15;99975.38;5112669;27;20463;-34
2021/12/05 15:06:46;;;;;;;0.20;0.20;;;;;;;19.01;41.96;99978.94;5137744;27;20042;-35
2021/12/05 15:09:19;;;;;;;0.20;0.20;;;;;;;19.00;42.15;99977.31;5109278;28;20062;-35
2021/12/05 15:11:55;;;;;;;0.20;0.20;;;;;;;19.00;42.17;99985.59;5124233;27;20043;-36
2021/12/05 15:14:22;;;;;;;0.20;0.20;;;;;;;18.99;42.25;99994.97;5083089;28;20051;-36
2021/12/05 15:16:57;;;;;;;0.20;0.20;;;;;;;19.01;42.11;99993.56;5123650;28;20082;-36
2021/12/05 15:19:23;;;;;;;0.20;0.20;;;;;;;19.01;42.02;100003.78;5121415;28;20830;-36
2021/12/05 15:21:49;;;;;;;0.20;0.20;;;;;;;19.02;41.94;99999.88;5126238;28;20131;-35
2021/12/05 15:24:16;;;;;;;0.20;0.20;;;;;;;19.01;42.01;100010.09;5100738;28;20051;-35
2021/12/05 15:26:43;;;;;;;0.20;0.20;;;;;;;19.00;42.09;100005.72;5126081;28;20047;-36
2021/12/05 15:29:10;;;;;;;0.20;0.20;;;;;;;19.00;41.93;100002.94;5124325;28;20639;-38
2021/12/05 15:31:52;;;;;;;0.20;0.20;;;;;;;19.01;41.96;100014.81;5125261;28;20062;-36
2021/12/05 15:34:20;;;;;;;0.20;0.20;;;;;;;19.00;41.97;100015.94;5100368;28;20040;-38
2021/12/05 15:36:46;;;;;;;0.20;0.20;;;;;;;19.00;42.04;100014.00;5124807;28;20150;-36
2021/12/05 15:39:19;;;;;;;0.20;0.20;;;;;;;18.99;41.97;100028.88;5105428;28;20397;-35
2021/12/05 15:41:54;;;;;;;0.20;0.20;;;;;;;19.00;42.06;100022.28;5108761;28;20126;-41
2021/12/05 15:44:25;;;;;;;0.20;0.20;;;;;;;19.00;42.17;100033.31;5088514;28;20058;-35
2021/12/05 15:46:59;;;;;;;0.20;0.20;;;;;;;19.01;42.01;100034.13;5102054;28;20051;-35
2021/12/05 15:49:28;;;;;;;0.20;0.20;;;;;;;19.01;42.14;100039.63;5102275;28;20039;-35
2021/12/05 15:52:01;;;;;;;0.20;0.20;;;;;;;19.00;41.83;100040.78;5119210;28;20039;-35
2021/12/05 15:54:26;;;;;;;0.20;0.20;;;;;;;19.00;42.10;100038.81;5104401;28;20035;-35
2021/12/05 15:57:06;;;;;;;0.20;0.20;;;;;;;19.00;42.08;100044.34;5122304;28;20148;-35
2021/12/05 15:59:38;;;;;;;0.20;0.20;;;;;;;19.00;42.09;100044.34;5119857;28;20039;-35
2021/12/05 16:02:07;;;;;;;0.20;0.20;;;;;;;19.00;42.11;100055.38;5122991;28;20122;-37
2021/12/05 16:04:33;;;;;;;0.20;0.20;;;;;;;19.00;42.15;100058.13;5120595;28;20043;-34
2021/12/05 16:07:00;;;;;;;0.20;0.20;;;;;;;18.99;42.18;100064.75;5106171;28;20047;-36
2021/12/05 16:09:27;;;;;;;0.20;0.20;;;;;;;19.00;41.97;100069.19;5102701;28;20491;-35
2021/12/05 16:12:07;;;;;;;0.20;0.20;;;;;;;19.01;42.12;100072.75;5121567;28;20127;-35
2021/12/05 16:14:36;;;;;;;0.20;0.20;;;;;;;19.01;41.95;100081.84;5102003;28;20482;-35
2021/12/05 16:17:13;;;;;;;0.20;0.20;;;;;;;19.00;42.09;100071.94;5122657;28;20126;-35
2021/12/05 16:19:39;;;;;;;0.20;0.20;;;;;;;19.00;42.18;100082.97;5101938;28;20047;-35
2021/12/05 16:22:19;;;;;;;0.20;0.20;;;;;;;18.99;42.14;100081.31;5120030;28;20358;-34
2021/12/05 16:24:45;;;;;;;0.20;0.20;;;;;;;19.01;42.17;100086.56;5118603;28;20047;-35
2021/12/05 16:27:11;;;;;;;0.20;0.20;;;;;;;19.00;42.20;100091.25;5119539;28;20051;-35
2021/12/05 16:29:37;;;;;;;0.20;0.20;;;;;;;19.00;42.28;100090.44;5122873;28;20047;-35
2021/12/05 16:32:03;;;;;;;0.20;0.20;;;;;;;19.00;42.03;100095.94;5122983;28;20676;-35
2021/12/05 16:34:31;;;;;;;0.20;0.20;;;;;;;19.00;42.20;100098.72;5118394;28;20518;-35